createdAt,value
2018-09-03T00:00:47.689Z,978.91
2018-09-03T00:01:47.682Z,978.94
2018-09-03T00:02:47.687Z,978.89
2018-09-03T00:03:47.717Z,978.90
2018-09-03T00:04:47.686Z,978.92
2018-09-03T00:05:47.687Z,978.92
2018-09-03T00:06:47.691Z,978.94
2018-09-03T00:07:47.684Z,978.94
2018-09-03T00:08:47.715Z,978.95
2018-09-03T00:09:47.687Z,978.90
2018-09-03T00:10:47.687Z,978.92
2018-09-03T00:11:47.701Z,978.89
2018-09-03T00:12:48.339Z,978.87
2018-09-03T00:13:47.719Z,978.86
2018-09-03T00:14:47.688Z,978.89
2018-09-03T00:15:47.684Z,978.86
2018-09-03T00:16:47.688Z,978.84
2018-09-03T00:17:47.687Z,978.80
2018-09-03T00:18:47.718Z,978.78
2018-09-03T00:19:47.684Z,978.75
2018-09-03T00:20:47.690Z,978.76
2018-09-03T00:21:47.690Z,978.75
2018-09-03T00:22:47.720Z,978.74
2018-09-03T00:23:47.690Z,978.82
2018-09-03T00:24:47.689Z,978.82
2018-09-03T00:25:47.694Z,978.81
2018-09-03T00:26:47.688Z,978.80
2018-09-03T00:27:47.717Z,978.83
2018-09-03T00:28:47.689Z,978.82
2018-09-03T00:29:47.691Z,978.86
2018-09-03T00:30:47.689Z,978.86
2018-09-03T00:31:47.685Z,978.84
2018-09-03T00:32:47.714Z,978.85
2018-09-03T00:33:47.690Z,978.86
2018-09-03T00:34:47.690Z,978.82
2018-09-03T00:35:47.687Z,978.81
2018-09-03T00:36:47.715Z,978.82
2018-09-03T00:37:47.691Z,978.85
2018-09-03T00:38:47.690Z,978.83
2018-09-03T00:39:47.691Z,978.84
2018-09-03T00:40:47.688Z,978.83
2018-09-03T00:41:47.715Z,978.83
2018-09-03T00:42:47.692Z,978.87
2018-09-03T00:43:47.687Z,978.88
2018-09-03T00:44:47.692Z,978.90
2018-09-03T00:45:47.690Z,978.93
2018-09-03T00:46:47.719Z,978.92
2018-09-03T00:47:47.690Z,978.94
2018-09-03T00:48:47.692Z,978.94
2018-09-03T00:49:47.692Z,978.92
2018-09-03T00:50:47.692Z,978.96
2018-09-03T00:51:47.722Z,978.95
2018-09-03T00:52:47.693Z,978.98
2018-09-03T00:53:47.694Z,979.01
2018-09-03T00:54:47.691Z,978.99
2018-09-03T00:55:47.689Z,979.00
2018-09-03T00:56:47.720Z,979.02
2018-09-03T00:57:47.689Z,979.03
2018-09-03T00:58:47.690Z,978.99
2018-09-03T00:59:47.690Z,979.03
2018-09-03T01:00:47.693Z,979.04
2018-09-03T01:01:47.718Z,979.02
2018-09-03T01:02:47.697Z,979.09
2018-09-03T01:03:47.693Z,979.02
2018-09-03T01:04:47.695Z,979.09
2018-09-03T01:05:47.691Z,979.08
2018-09-03T01:06:47.719Z,979.08
2018-09-03T01:07:47.691Z,979.03
2018-09-03T01:08:47.699Z,979.02
2018-09-03T01:09:47.688Z,979.00
2018-09-03T01:10:47.691Z,978.93
2018-09-03T01:11:47.718Z,978.89
2018-09-03T01:12:47.696Z,978.86
2018-09-03T01:13:47.691Z,978.84
2018-09-03T01:14:47.689Z,978.83
2018-09-03T01:15:47.692Z,978.82
2018-09-03T01:16:47.720Z,978.82
2018-09-03T01:17:47.692Z,978.80
2018-09-03T01:18:47.693Z,978.75
2018-09-03T01:19:47.693Z,978.76
2018-09-03T01:20:47.720Z,978.75
2018-09-03T01:21:47.692Z,978.78
2018-09-03T01:22:47.692Z,978.79
2018-09-03T01:23:47.696Z,978.77
2018-09-03T01:24:47.701Z,978.75
2018-09-03T01:25:47.721Z,978.74
2018-09-03T01:26:47.694Z,978.71
2018-09-03T01:27:47.693Z,978.70
2018-09-03T01:28:47.696Z,978.65
2018-09-03T01:29:47.697Z,978.68
2018-09-03T01:30:47.722Z,978.60
2018-09-03T01:31:47.695Z,978.63
2018-09-03T01:32:47.696Z,978.61
2018-09-03T01:33:47.722Z,978.59
2018-09-03T01:34:47.695Z,978.63
2018-09-03T01:35:47.697Z,978.69
2018-09-03T01:36:47.710Z,978.70
2018-09-03T01:37:47.694Z,978.73
2018-09-03T01:38:47.721Z,978.74
2018-09-03T01:39:47.692Z,978.70
2018-09-03T01:40:47.699Z,978.69
2018-09-03T01:41:47.723Z,978.67
2018-09-03T01:42:47.695Z,978.65
2018-09-03T01:43:47.698Z,978.59
2018-09-03T01:44:47.697Z,978.58
2018-09-03T01:45:47.723Z,978.59
2018-09-03T01:46:47.699Z,978.59
2018-09-03T01:47:47.697Z,978.61
2018-09-03T01:48:48.728Z,978.60
2018-09-03T01:49:47.695Z,978.59
2018-09-03T01:50:47.696Z,978.56
2018-09-03T01:51:47.724Z,978.53
2018-09-03T01:52:47.813Z,978.54
2018-09-03T01:53:47.697Z,978.47
2018-09-03T01:54:47.696Z,978.50
2018-09-03T01:55:47.728Z,978.51
2018-09-03T01:56:47.701Z,978.54
2018-09-03T01:57:47.692Z,978.57
2018-09-03T01:58:47.700Z,978.59
2018-09-03T01:59:47.701Z,978.55
2018-09-03T02:00:47.725Z,978.60
2018-09-03T02:01:47.701Z,978.56
2018-09-03T02:02:47.706Z,978.55
2018-09-03T02:03:47.723Z,978.58
2018-09-03T02:04:47.702Z,978.59
2018-09-03T02:05:47.735Z,978.56
2018-09-03T02:06:47.704Z,978.51
2018-09-03T02:07:47.700Z,978.56
2018-09-03T02:08:47.702Z,978.50
2018-09-03T02:09:47.695Z,978.52
2018-09-03T02:10:47.730Z,978.56
2018-09-03T02:11:47.699Z,978.53
2018-09-03T02:12:47.703Z,978.51
2018-09-03T02:13:47.727Z,978.52
2018-09-03T02:14:47.707Z,978.56
2018-09-03T02:15:47.701Z,978.57
2018-09-03T02:16:47.723Z,978.55
2018-09-03T02:17:47.704Z,978.50
2018-09-03T02:18:47.731Z,978.52
2018-09-03T02:19:47.700Z,978.51
2018-09-03T02:20:47.703Z,978.45
2018-09-03T02:21:47.738Z,978.45
2018-09-03T02:22:47.704Z,978.45
2018-09-03T02:23:47.700Z,978.42
2018-09-03T02:24:47.704Z,978.39
2018-09-03T02:25:47.736Z,978.40
2018-09-03T02:26:47.704Z,978.41
2018-09-03T02:27:47.701Z,978.36
2018-09-03T02:28:47.705Z,978.38
2018-09-03T02:29:47.705Z,978.37
2018-09-03T02:30:47.731Z,978.39
2018-09-03T02:31:47.701Z,978.39
2018-09-03T02:32:47.705Z,978.36
2018-09-03T02:33:47.705Z,978.40
2018-09-03T02:34:47.707Z,978.39
2018-09-03T02:35:47.730Z,978.40
2018-09-03T02:36:47.734Z,978.36
2018-09-03T02:37:47.706Z,978.37
2018-09-03T02:38:47.703Z,978.40
2018-09-03T02:39:47.702Z,978.39
2018-09-03T02:40:47.707Z,978.42
2018-09-03T02:41:47.732Z,978.40
2018-09-03T02:42:47.846Z,978.35
2018-09-03T02:43:47.703Z,978.33
2018-09-03T02:44:47.707Z,978.26
2018-09-03T02:45:47.739Z,978.26
2018-09-03T02:46:47.712Z,978.19
2018-09-03T02:47:47.708Z,978.19
2018-09-03T02:48:47.707Z,978.15
2018-09-03T02:49:47.708Z,978.18
2018-09-03T02:50:47.736Z,978.14
2018-09-03T02:51:47.704Z,978.15
2018-09-03T02:52:47.707Z,978.11
2018-09-03T02:53:47.708Z,978.09
2018-09-03T02:54:47.708Z,978.04
2018-09-03T02:55:47.736Z,978.04
2018-09-03T02:56:47.704Z,978.03
2018-09-03T02:57:47.723Z,978.01
2018-09-03T02:58:47.709Z,977.99
2018-09-03T02:59:47.705Z,978.00
2018-09-03T03:00:47.737Z,977.96
2018-09-03T03:01:47.709Z,977.93
2018-09-03T03:02:47.711Z,977.86
2018-09-03T03:03:47.709Z,977.91
2018-09-03T03:04:47.710Z,977.90
2018-09-03T03:05:47.741Z,977.86
2018-09-03T03:06:47.710Z,977.85
2018-09-03T03:07:47.707Z,977.83
2018-09-03T03:08:47.713Z,977.82
2018-09-03T03:09:47.709Z,977.80
2018-09-03T03:10:47.742Z,977.80
2018-09-03T03:11:47.763Z,977.80
2018-09-03T03:12:47.870Z,977.83
2018-09-03T03:13:47.735Z,977.79
2018-09-03T03:14:47.711Z,977.79
2018-09-03T03:15:47.736Z,977.78
2018-09-03T03:16:47.711Z,977.76
2018-09-03T03:17:47.732Z,977.77
2018-09-03T03:18:47.712Z,977.75
2018-09-03T03:19:47.711Z,977.71
2018-09-03T03:20:47.741Z,977.68
2018-09-03T03:21:47.711Z,977.72
2018-09-03T03:22:47.712Z,977.64
2018-09-03T03:23:47.707Z,977.64
2018-09-03T03:24:47.710Z,977.58
2018-09-03T03:25:47.737Z,977.56
2018-09-03T03:26:47.708Z,977.58
2018-09-03T03:27:47.712Z,977.60
2018-09-03T03:28:47.712Z,977.61
2018-09-03T03:29:47.737Z,977.59
2018-09-03T03:30:47.708Z,977.62
2018-09-03T03:31:47.710Z,977.65
2018-09-03T03:32:47.800Z,977.65
2018-09-03T03:33:47.708Z,977.70
2018-09-03T03:34:47.708Z,977.68
2018-09-03T03:35:47.747Z,977.65
2018-09-03T03:36:47.716Z,977.62
2018-09-03T03:37:47.710Z,977.66
2018-09-03T03:38:47.716Z,977.61
2018-09-03T03:39:47.709Z,977.59
2018-09-03T03:40:47.737Z,977.61
2018-09-03T03:41:51.625Z,977.59
2018-09-03T03:42:47.709Z,977.58
2018-09-03T03:43:47.708Z,977.58
2018-09-03T03:44:47.717Z,977.58
2018-09-03T03:45:47.738Z,977.58
2018-09-03T03:46:47.710Z,977.53
2018-09-03T03:47:48.389Z,977.53
2018-09-03T03:48:47.784Z,977.53
2018-09-03T03:49:47.708Z,977.51
2018-09-03T03:50:47.739Z,977.57
2018-09-03T03:51:47.708Z,977.58
2018-09-03T03:52:47.843Z,977.60
2018-09-03T03:53:47.707Z,977.63
2018-09-03T03:54:47.704Z,977.59
2018-09-03T03:55:47.736Z,977.63
2018-09-03T03:56:47.709Z,977.63
2018-09-03T03:57:47.708Z,977.59
2018-09-03T03:58:47.706Z,977.58
2018-09-03T03:59:47.712Z,977.54
2018-09-03T04:00:47.741Z,977.52
2018-09-03T04:01:47.730Z,977.45
2018-09-03T04:02:47.713Z,977.44
2018-09-03T04:03:47.709Z,977.40
2018-09-03T04:04:47.708Z,977.38
2018-09-03T04:05:47.738Z,977.36
2018-09-03T04:06:47.714Z,977.33
2018-09-03T04:07:47.709Z,977.35
2018-09-03T04:08:47.726Z,977.35
2018-09-03T04:09:47.710Z,977.35
2018-09-03T04:10:47.734Z,977.35
2018-09-03T04:11:47.738Z,977.38
2018-09-03T04:12:47.882Z,977.40
2018-09-03T04:13:47.714Z,977.42
2018-09-03T04:14:47.707Z,977.39
2018-09-03T04:15:47.712Z,977.42
2018-09-03T04:16:47.740Z,977.45
2018-09-03T04:17:47.719Z,977.45
2018-09-03T04:18:47.712Z,977.49
2018-09-03T04:19:47.707Z,977.54
2018-09-03T04:20:47.707Z,977.54
2018-09-03T04:21:47.735Z,977.55
2018-09-03T04:22:47.715Z,977.47
2018-09-03T04:23:47.773Z,977.45
2018-09-03T04:24:47.707Z,977.39
2018-09-03T04:25:47.704Z,977.32
2018-09-03T04:26:47.740Z,977.27
2018-09-03T04:27:47.709Z,977.27
2018-09-03T04:28:47.756Z,977.28
2018-09-03T04:29:47.708Z,977.25
2018-09-03T04:30:47.708Z,977.33
2018-09-03T04:31:47.741Z,977.39
2018-09-03T04:32:47.926Z,977.43
2018-09-03T04:33:47.705Z,977.49
2018-09-03T04:34:47.709Z,977.48
2018-09-03T04:35:47.714Z,977.53
2018-09-03T04:36:47.735Z,977.54
2018-09-03T04:37:47.709Z,977.49
2018-09-03T04:38:47.795Z,977.51
2018-09-03T04:39:47.706Z,977.52
2018-09-03T04:40:47.711Z,977.46
2018-09-03T04:41:47.742Z,977.43
2018-09-03T04:42:47.710Z,977.42
2018-09-03T04:43:47.709Z,977.40
2018-09-03T04:44:47.706Z,977.44
2018-09-03T04:45:47.711Z,977.38
2018-09-03T04:46:47.735Z,977.35
2018-09-03T04:47:47.707Z,977.32
2018-09-03T04:48:47.705Z,977.29
2018-09-03T04:49:47.739Z,977.29
2018-09-03T04:50:47.715Z,977.30
2018-09-03T04:51:47.736Z,977.34
2018-09-03T04:52:47.856Z,977.29
2018-09-03T04:53:47.712Z,977.29
2018-09-03T04:54:47.726Z,977.27
2018-09-03T04:55:47.708Z,977.27
2018-09-03T04:56:47.736Z,977.29
2018-09-03T04:57:47.706Z,977.33
2018-09-03T04:58:47.711Z,977.35
2018-09-03T04:59:47.709Z,977.34
2018-09-03T05:00:47.706Z,977.30
2018-09-03T05:01:47.743Z,977.28
2018-09-03T05:02:47.711Z,977.26
2018-09-03T05:03:48.383Z,977.27
2018-09-03T05:04:47.705Z,977.28
2018-09-03T05:05:47.777Z,977.36
2018-09-03T05:06:47.738Z,977.36
2018-09-03T05:07:47.710Z,977.33
2018-09-03T05:08:47.706Z,977.34
2018-09-03T05:09:49.767Z,977.25
2018-09-03T05:10:51.266Z,977.19
2018-09-03T05:11:48.646Z,977.23
2018-09-03T05:12:54.620Z,977.32
2018-09-03T05:13:47.792Z,977.41
2018-09-03T05:14:47.713Z,977.45
2018-09-03T05:15:47.743Z,977.42
2018-09-03T05:16:53.750Z,977.40
2018-09-03T05:17:50.392Z,977.38
2018-09-03T05:18:50.288Z,977.39
2018-09-03T05:19:48.098Z,977.40
2018-09-03T05:20:50.363Z,977.40
2018-09-03T05:21:49.246Z,977.33
2018-09-03T05:22:48.110Z,977.37
2018-09-03T05:23:47.712Z,977.35
2018-09-03T05:24:47.788Z,977.31
2018-09-03T05:25:47.736Z,977.29
2018-09-03T05:26:47.740Z,977.33
2018-09-03T05:27:47.717Z,977.35
2018-09-03T05:28:47.710Z,977.36
2018-09-03T05:29:47.721Z,977.36
2018-09-03T05:30:48.383Z,977.34
2018-09-03T05:31:47.748Z,977.33
2018-09-03T05:32:47.715Z,977.32
2018-09-03T05:33:47.715Z,977.32
2018-09-03T05:34:47.719Z,977.29
2018-09-03T05:35:47.811Z,977.32
2018-09-03T05:36:47.711Z,977.31
2018-09-03T05:37:47.720Z,977.29
2018-09-03T05:38:47.719Z,977.31
2018-09-03T05:39:47.867Z,977.31
2018-09-03T05:40:47.749Z,977.32
2018-09-03T05:41:47.716Z,977.32
2018-09-03T05:42:47.718Z,977.33
2018-09-03T05:43:47.774Z,977.34
2018-09-03T05:44:47.716Z,977.33
2018-09-03T05:45:47.740Z,977.31
2018-09-03T05:46:47.718Z,977.30
2018-09-03T05:47:47.724Z,977.33
2018-09-03T05:48:47.724Z,977.31
2018-09-03T05:49:47.724Z,977.31
2018-09-03T05:50:47.836Z,977.25
2018-09-03T05:51:47.921Z,977.26
2018-09-03T05:52:47.723Z,977.22
2018-09-03T05:53:47.719Z,977.26
2018-09-03T05:54:47.723Z,977.31
2018-09-03T05:55:47.721Z,977.28
2018-09-03T05:56:47.749Z,977.31
2018-09-03T05:57:47.721Z,977.32
2018-09-03T05:58:47.718Z,977.31
2018-09-03T05:59:47.727Z,977.30
2018-09-03T06:00:47.727Z,977.25
2018-09-03T06:01:47.754Z,977.32
2018-09-03T06:02:47.721Z,977.30
2018-09-03T06:03:48.021Z,977.35
2018-09-03T06:04:47.770Z,977.28
2018-09-03T06:05:50.895Z,977.27
2018-09-03T06:06:47.722Z,977.25
2018-09-03T06:07:47.722Z,977.29
2018-09-03T06:08:47.723Z,977.28
2018-09-03T06:09:47.721Z,977.30
2018-09-03T06:10:47.846Z,977.32
2018-09-03T06:11:47.727Z,977.32
2018-09-03T06:12:47.734Z,977.33
2018-09-03T06:13:47.728Z,977.38
2018-09-03T06:14:47.729Z,977.45
2018-09-03T06:15:47.756Z,977.46
2018-09-03T06:16:47.728Z,977.51
2018-09-03T06:17:47.764Z,977.60
2018-09-03T06:18:47.725Z,977.70
2018-09-03T06:19:47.728Z,977.82
2018-09-03T06:20:47.756Z,977.90
2018-09-03T06:21:48.265Z,978.04
2018-09-03T06:22:47.726Z,978.09
2018-09-03T06:23:47.729Z,978.14
2018-09-03T06:24:47.729Z,978.17
2018-09-03T06:25:47.756Z,978.20
2018-09-03T06:26:47.837Z,978.08
2018-09-03T06:27:47.730Z,978.04
2018-09-03T06:28:47.729Z,978.04
2018-09-03T06:29:47.729Z,978.06
2018-09-03T06:30:47.726Z,978.05
2018-09-03T06:31:47.761Z,977.97
2018-09-03T06:32:47.791Z,977.88
2018-09-03T06:33:47.730Z,977.78
2018-09-03T06:34:47.731Z,977.69
2018-09-03T06:35:47.741Z,977.62
2018-09-03T06:36:47.759Z,977.57
2018-09-03T06:37:47.731Z,977.56
2018-09-03T06:38:47.737Z,977.52
2018-09-03T06:39:47.736Z,977.49
2018-09-03T06:40:47.730Z,977.52
2018-09-03T06:41:47.759Z,977.53
2018-09-03T06:42:47.735Z,977.54
2018-09-03T06:43:47.732Z,977.52
2018-09-03T06:44:47.731Z,977.39
2018-09-03T06:45:47.745Z,977.36
2018-09-03T06:46:47.756Z,977.36
2018-09-03T06:47:47.732Z,977.47
2018-09-03T06:48:47.732Z,977.54
2018-09-03T06:49:47.732Z,977.55
2018-09-03T06:50:47.736Z,977.63
2018-09-03T06:51:47.757Z,977.66
2018-09-03T06:52:47.778Z,977.64
2018-09-03T06:53:47.733Z,977.70
2018-09-03T06:54:47.733Z,977.69
2018-09-03T06:55:47.733Z,977.71
2018-09-03T06:56:47.765Z,977.72
2018-09-03T06:57:47.733Z,977.71
2018-09-03T06:58:47.729Z,977.71
2018-09-03T06:59:48.274Z,977.67
2018-09-03T07:00:47.766Z,977.64
2018-09-03T07:01:47.746Z,977.62
2018-09-03T07:02:47.759Z,977.62
2018-09-03T07:03:47.743Z,977.55
2018-09-03T07:04:48.095Z,977.57
2018-09-03T07:05:47.737Z,977.56
2018-09-03T07:06:47.811Z,977.57
2018-09-03T07:07:47.763Z,977.57
2018-09-03T07:08:47.734Z,977.57
2018-09-03T07:09:47.738Z,977.56
2018-09-03T07:10:47.766Z,977.55
2018-09-03T07:11:47.739Z,977.57
2018-09-03T07:12:47.762Z,977.55
2018-09-03T07:13:47.740Z,977.55
2018-09-03T07:14:47.738Z,977.55
2018-09-03T07:15:48.320Z,977.55
2018-09-03T07:16:47.769Z,977.52
2018-09-03T07:17:47.740Z,977.56
2018-09-03T07:18:47.755Z,977.59
2018-09-03T07:19:47.746Z,977.62
2018-09-03T07:20:47.772Z,977.62
2018-09-03T07:21:47.745Z,977.61
2018-09-03T07:22:47.772Z,977.59
2018-09-03T07:23:47.740Z,977.60
2018-09-03T07:24:47.749Z,977.57
2018-09-03T07:25:47.753Z,977.55
2018-09-03T07:26:47.782Z,977.52
2018-09-03T07:27:48.346Z,977.48
2018-09-03T07:28:48.411Z,977.50
2018-09-03T07:29:48.345Z,977.46
2018-09-03T07:30:48.408Z,977.47
2018-09-03T07:31:49.346Z,977.45
2018-09-03T07:32:47.749Z,977.45
2018-09-03T07:33:47.751Z,977.46
2018-09-03T07:34:47.754Z,977.50
2018-09-03T07:35:47.782Z,977.45
2018-09-03T07:36:47.755Z,977.47
2018-09-03T07:37:47.787Z,977.44
2018-09-03T07:38:47.757Z,977.47
2018-09-03T07:39:47.754Z,977.48
2018-09-03T07:40:47.795Z,977.49
2018-09-03T07:41:47.757Z,977.52
2018-09-03T07:42:47.763Z,977.48
2018-09-03T07:43:47.759Z,977.46
2018-09-03T07:44:47.763Z,977.47
2018-09-03T07:45:47.792Z,977.47
2018-09-03T07:46:47.768Z,977.45
2018-09-03T07:47:47.783Z,977.43
2018-09-03T07:48:47.773Z,977.47
2018-09-03T07:49:47.768Z,977.42
2018-09-03T07:50:47.796Z,977.43
2018-09-03T07:51:47.771Z,977.45
2018-09-03T07:52:47.773Z,977.43
2018-09-03T07:53:47.780Z,977.45
2018-09-03T07:54:47.777Z,977.44
2018-09-03T07:55:47.806Z,977.39
2018-09-03T07:56:47.780Z,977.39
2018-09-03T07:57:47.807Z,977.36
2018-09-03T07:58:47.785Z,977.34
2018-09-03T07:59:47.781Z,977.38
2018-09-03T08:00:47.790Z,977.32
2018-09-03T08:01:47.817Z,977.38
2018-09-03T08:02:47.790Z,977.31
2018-09-03T08:03:47.793Z,977.32
2018-09-03T08:04:47.792Z,977.35
2018-09-03T08:05:47.795Z,977.35
2018-09-03T08:06:47.823Z,977.38
2018-09-03T08:07:47.795Z,977.37
2018-09-03T08:08:47.803Z,977.39
2018-09-03T08:09:47.799Z,977.38
2018-09-03T08:10:47.803Z,977.41
2018-09-03T08:11:47.825Z,977.43
2018-09-03T08:12:47.865Z,977.45
2018-09-03T08:13:47.814Z,977.43
2018-09-03T08:14:47.808Z,977.42
2018-09-03T08:15:47.808Z,977.39
2018-09-03T08:16:47.840Z,977.38
2018-09-03T08:17:47.816Z,977.43
2018-09-03T08:18:47.817Z,977.44
2018-09-03T08:19:47.810Z,977.50
2018-09-03T08:20:47.816Z,977.51
2018-09-03T08:21:47.849Z,977.51
2018-09-03T08:22:47.825Z,977.51
2018-09-03T08:23:47.822Z,977.47
2018-09-03T08:24:47.829Z,977.42
2018-09-03T08:25:47.827Z,977.40
2018-09-03T08:26:47.853Z,977.39
2018-09-03T08:27:47.827Z,977.44
2018-09-03T08:28:47.833Z,977.45
2018-09-03T08:29:47.830Z,977.47
2018-09-03T08:30:47.835Z,977.46
2018-09-03T08:31:47.858Z,977.47
2018-09-03T08:32:47.833Z,977.44
2018-09-03T08:33:47.842Z,977.41
2018-09-03T08:34:47.835Z,977.36
2018-09-03T08:35:47.834Z,977.32
2018-09-03T08:36:47.879Z,977.31
2018-09-03T08:37:47.847Z,977.32
2018-09-03T08:38:47.840Z,977.36
2018-09-03T08:39:47.883Z,977.36
2018-09-03T08:40:47.844Z,977.37
2018-09-03T08:41:47.872Z,977.37
2018-09-03T08:42:47.847Z,977.37
2018-09-03T08:43:47.845Z,977.38
2018-09-03T08:44:47.894Z,977.32
2018-09-03T08:45:47.867Z,977.34
2018-09-03T08:46:47.895Z,977.33
2018-09-03T08:47:47.857Z,977.34
2018-09-03T08:48:48.289Z,977.32
2018-09-03T08:49:47.851Z,977.31
2018-09-03T08:50:47.850Z,977.29
2018-09-03T08:51:47.853Z,977.28
2018-09-03T08:52:49.390Z,977.28
2018-09-03T08:53:47.854Z,977.31
2018-09-03T08:54:47.850Z,977.32
2018-09-03T08:55:47.866Z,977.34
2018-09-03T08:56:47.900Z,977.33
2018-09-03T08:57:47.858Z,977.39
2018-09-03T08:58:48.097Z,977.37
2018-09-03T08:59:48.783Z,977.36
2018-09-03T09:00:47.876Z,977.37
2018-09-03T09:01:47.894Z,977.34
2018-09-03T09:02:47.862Z,977.37
2018-09-03T09:03:47.862Z,977.31
2018-09-03T09:04:47.869Z,977.27
2018-09-03T09:05:47.873Z,977.27
2018-09-03T09:06:48.098Z,977.29
2018-09-03T09:07:47.865Z,977.30
2018-09-03T09:08:47.865Z,977.33
2018-09-03T09:09:47.873Z,977.33
2018-09-03T09:10:47.861Z,977.31
2018-09-03T09:11:51.337Z,977.33
2018-09-03T09:12:48.128Z,977.34
2018-09-03T09:13:50.781Z,977.31
2018-09-03T09:14:48.020Z,977.29
2018-09-03T09:15:55.369Z,977.34
2018-09-03T09:16:47.975Z,977.36
2018-09-03T09:17:49.430Z,977.39
2018-09-03T09:18:48.842Z,977.41
2018-09-03T09:19:48.120Z,977.40
2018-09-03T09:20:48.189Z,977.37
2018-09-03T09:21:48.068Z,977.33
2018-09-03T09:22:49.841Z,977.35
2018-09-03T09:23:51.940Z,977.32
2018-09-03T09:24:48.008Z,977.36
2018-09-03T09:25:48.083Z,977.32
2018-09-03T09:26:47.920Z,977.35
2018-09-03T09:27:48.064Z,977.37
2018-09-03T09:28:47.895Z,977.35
2018-09-03T09:29:48.498Z,977.32
2018-09-03T09:30:48.045Z,977.30
2018-09-03T09:31:47.920Z,977.29
2018-09-03T09:32:48.022Z,977.30
2018-09-03T09:33:48.023Z,977.31
2018-09-03T09:34:47.991Z,977.29
2018-09-03T09:35:47.984Z,977.28
2018-09-03T09:36:47.942Z,977.25
2018-09-03T09:37:47.897Z,977.27
2018-09-03T09:38:47.903Z,977.28
2018-09-03T09:39:47.896Z,977.26
2018-09-03T09:40:47.899Z,977.25
2018-09-03T09:41:47.931Z,977.29
2018-09-03T09:42:47.914Z,977.34
2018-09-03T09:43:47.903Z,977.30
2018-09-03T09:44:47.930Z,977.28
2018-09-03T09:45:47.908Z,977.28
2018-09-03T09:46:47.907Z,977.21
2018-09-03T09:47:47.938Z,977.23
2018-09-03T09:48:47.902Z,977.24
2018-09-03T09:49:48.016Z,977.21
2018-09-03T09:50:47.909Z,977.22
2018-09-03T09:51:47.911Z,977.24
2018-09-03T09:52:47.949Z,977.21
2018-09-03T09:53:47.912Z,977.21
2018-09-03T09:54:47.929Z,977.17
2018-09-03T09:55:47.907Z,977.21
2018-09-03T09:56:47.957Z,977.20
2018-09-03T09:57:47.916Z,977.22
2018-09-03T09:58:47.975Z,977.16
2018-09-03T09:59:47.956Z,977.15
2018-09-03T10:00:47.925Z,977.12
2018-09-03T10:01:47.959Z,977.12
2018-09-03T10:02:47.929Z,977.20
2018-09-03T10:03:47.925Z,977.18
2018-09-03T10:04:47.924Z,977.19
2018-09-03T10:05:47.935Z,977.15
2018-09-03T10:06:47.961Z,977.16
2018-09-03T10:07:47.970Z,977.19
2018-09-03T10:08:48.034Z,977.15
2018-09-03T10:09:47.965Z,977.20
2018-09-03T10:10:47.932Z,977.17
2018-09-03T10:11:47.925Z,977.19
2018-09-03T10:12:47.965Z,977.19
2018-09-03T10:13:47.934Z,977.16
2018-09-03T10:14:47.935Z,977.18
2018-09-03T10:15:47.942Z,977.19
2018-09-03T10:16:47.965Z,977.13
2018-09-03T10:17:47.944Z,977.14
2018-09-03T10:18:47.939Z,977.14
2018-09-03T10:19:47.970Z,977.11
2018-09-03T10:20:48.009Z,977.04
2018-09-03T10:21:47.937Z,977.05
2018-09-03T10:22:47.963Z,977.04
2018-09-03T10:23:47.943Z,977.04
2018-09-03T10:24:47.946Z,977.02
2018-09-03T10:25:47.946Z,977.00
2018-09-03T10:26:47.947Z,977.00
2018-09-03T10:27:47.976Z,976.97
2018-09-03T10:28:47.949Z,976.96
2018-09-03T10:29:47.988Z,976.92
2018-09-03T10:30:47.959Z,976.93
2018-09-03T10:31:48.011Z,976.92
2018-09-03T10:32:47.992Z,976.93
2018-09-03T10:33:47.957Z,976.89
2018-09-03T10:34:47.965Z,976.85
2018-09-03T10:35:47.965Z,976.86
2018-09-03T10:36:47.971Z,976.85
2018-09-03T10:37:48.001Z,976.81
2018-09-03T10:38:47.973Z,976.82
2018-09-03T10:39:47.973Z,976.80
2018-09-03T10:40:47.975Z,976.75
2018-09-03T10:41:47.999Z,976.77
2018-09-03T10:42:48.007Z,976.74
2018-09-03T10:43:47.978Z,976.77
2018-09-03T10:44:47.994Z,976.76
2018-09-03T10:45:47.986Z,976.77
2018-09-03T10:46:47.988Z,976.74
2018-09-03T10:47:48.016Z,976.71
2018-09-03T10:48:47.987Z,976.71
2018-09-03T10:49:48.027Z,976.74
2018-09-03T10:50:47.991Z,976.73
2018-09-03T10:51:48.023Z,976.71
2018-09-03T10:52:47.996Z,976.71
2018-09-03T10:53:47.996Z,976.73
2018-09-03T10:54:48.024Z,976.68
2018-09-03T10:55:48.000Z,976.69
2018-09-03T10:56:48.001Z,976.70
2018-09-03T10:57:48.031Z,976.68
2018-09-03T10:58:48.008Z,976.67
2018-09-03T10:59:48.933Z,976.66
2018-09-03T11:00:48.005Z,976.67
2018-09-03T11:01:48.036Z,976.64
2018-09-03T11:02:48.937Z,976.60
2018-09-03T11:03:48.014Z,976.64
2018-09-03T11:04:48.013Z,976.67
2018-09-03T11:05:48.017Z,976.69
2018-09-03T11:06:48.046Z,976.67
2018-09-03T11:07:48.017Z,976.65
2018-09-03T11:08:48.022Z,976.70
2018-09-03T11:09:48.022Z,976.69
2018-09-03T11:10:48.042Z,976.70
2018-09-03T11:11:48.051Z,976.72
2018-09-03T11:12:48.032Z,976.75
2018-09-03T11:13:48.030Z,976.72
2018-09-03T11:14:48.031Z,976.70
2018-09-03T11:15:48.037Z,976.72
2018-09-03T11:16:48.060Z,976.70
2018-09-03T11:17:48.040Z,976.72
2018-09-03T11:18:48.043Z,976.74
2018-09-03T11:19:48.959Z,976.72
2018-09-03T11:20:48.045Z,976.71
2018-09-03T11:21:48.075Z,976.67
2018-09-03T11:22:48.048Z,976.70
2018-09-03T11:23:48.052Z,976.71
2018-09-03T11:24:48.082Z,976.73
2018-09-03T11:25:50.114Z,976.70
2018-09-03T11:26:48.092Z,976.72
2018-09-03T11:27:48.061Z,976.72
2018-09-03T11:28:48.082Z,976.70
2018-09-03T11:29:48.069Z,976.69
2018-09-03T11:30:48.097Z,976.71
2018-09-03T11:31:48.080Z,976.66
2018-09-03T11:32:48.073Z,976.71
2018-09-03T11:33:48.077Z,976.70
2018-09-03T11:34:48.081Z,976.71
2018-09-03T11:35:48.106Z,976.66
2018-09-03T11:36:48.086Z,976.65
2018-09-03T11:37:48.095Z,976.62
2018-09-03T11:38:48.090Z,976.61
2018-09-03T11:39:48.095Z,976.68
2018-09-03T11:40:48.152Z,976.66
2018-09-03T11:41:48.106Z,976.63
2018-09-03T11:42:48.099Z,976.66
2018-09-03T11:43:48.104Z,976.67
2018-09-03T11:44:48.116Z,976.67
2018-09-03T11:45:48.125Z,976.69
2018-09-03T11:46:48.116Z,976.66
2018-09-03T11:47:48.114Z,976.71
2018-09-03T11:48:48.116Z,976.68
2018-09-03T11:49:48.120Z,976.73
2018-09-03T11:50:48.150Z,976.69
2018-09-03T11:51:48.125Z,976.70
2018-09-03T11:52:48.130Z,976.69
2018-09-03T11:53:48.133Z,976.70
2018-09-03T11:54:48.165Z,976.68
2018-09-03T11:55:48.141Z,976.72
2018-09-03T11:56:48.219Z,976.70
2018-09-03T11:57:48.156Z,976.68
2018-09-03T11:58:48.146Z,976.69
2018-09-03T11:59:48.174Z,976.66
2018-09-03T12:00:48.154Z,976.69
2018-09-03T12:01:48.151Z,976.71
2018-09-03T12:02:48.160Z,976.70
2018-09-03T12:03:48.163Z,976.70
2018-09-03T12:04:53.615Z,976.65
2018-09-03T12:05:48.167Z,976.70
2018-09-03T12:06:48.182Z,976.69
2018-09-03T12:07:48.175Z,976.70
2018-09-03T12:08:48.179Z,976.68
2018-09-03T12:09:48.213Z,976.70
2018-09-03T12:10:48.184Z,976.72
2018-09-03T12:11:48.191Z,976.69
2018-09-03T12:12:48.184Z,976.71
2018-09-03T12:13:48.220Z,976.74
2018-09-03T12:14:48.195Z,976.75
2018-09-03T12:15:48.200Z,976.74
2018-09-03T12:16:48.201Z,976.78
2018-09-03T12:17:48.205Z,976.75
2018-09-03T12:18:48.232Z,976.79
2018-09-03T12:19:48.214Z,976.79
2018-09-03T12:20:48.217Z,976.80
2018-09-03T12:21:48.214Z,976.84
2018-09-03T12:22:48.215Z,976.79
2018-09-03T12:23:48.245Z,976.85
2018-09-03T12:24:48.222Z,976.86
2018-09-03T12:25:48.228Z,976.86
2018-09-03T12:26:48.226Z,976.89
2018-09-03T12:27:48.234Z,976.91
2018-09-03T12:28:48.258Z,976.86